Airfield :
LOGIN :

Register | Disclaimer

   EN    FR    IT 

 










Legend :    VFR   Marginal VFR   IFR   Intensive IFR   Very Intensive IFR
Visi :
Ceiling :
>= 8 km
>= 3000ft
5 to 8 km
1000 to 3000 ft
1500m to 5 km
500 to 1000 ft
800 to 1500m
200 to 500 ft
< 800m
< 200 ft
Symbols :   Thunderstorms  Fog  Heavy snow  Heavy precipitations  Wind > 20 kt
SIGMETs :     Misc.  Thunderstorms  Icing  Turbulence  Mountain Waves  Volcanic Ashes







- Airport Elevation : 202 ft
- IATA code : LGW
- Download approach charts


EGKK - London Gatwick

CURRENT METAR :
  • 272250Z VRB01KT CAVOK 16/13 Q1016

EXPIRED METARs :
  • 272220Z 18001KT CAVOK 16/14 Q1016
  • 272150Z 22002KT CAVOK 18/14 Q1016
  • 272120Z 26004KT 230V290 CAVOK 18/14 Q1016
  • 272050Z 24004KT CAVOK 19/15 Q1016
  • 272020Z VRB02KT CAVOK 20/14 Q1016

TAF TAF EGKK
Valid from the 27 at 18:00 until the 29 at 00:00 UTC


271653Z 2718/2824 22006KT 9999 FEW025
BECMG 2800/2803 8000
PROB30 2801/2806 4000 BR
BECMG 2806/2809 9999
PROB30
TEMPO 2813/2817 4000 TSRA BKN014 BKN040CB
No reported NOTAMs for that airfield.
1 SIGMET reported for the London FIR (EGTT) :
 
Embedded thunderstorms
EGTT SIGMET 08 VALID 272000/272330 EGRR
EGTT LONDON FIR EMBD TS OBS WI N5450 W00530 - N5428 W00345 - N5309 E00033 - N5245 E00026 - N5254 W00021 - N5133 E00001 - N5328 W00530 - N5450 W00530 TOP FL340 STNR WKN=



MET'MAP, your aeronautical weather chart ! - Copyright ORBIFLY December 2007 - Disclaimer

ORBIFLY MET'MAP TEAM :

Programming & Development : Alexandra Zaïnal
Concept & Development : Baudouin d'Aumeries
Co-Development & Prog : Marc-Olivier Méhu
Technical & hardware support : Manuel Goepfert

Contact : metmap@orbifly.com




SOURCES & CREDITS :

   NOAA